Time;durP1;ratioP1;P1;durP2;ratioP2;P2;SDS_P1;SDS_P2;PMS_P1;PMS_P2;Temp;Humidity;BMP_temperature;BMP_pressure;BME280_temperature;BME280_humidity;BME280_pressure;Samples;Min_cycle;Max_cycle;Signal;HPM_P1;HPM_P2
2022/06/27 00:00:59;;;;;;;1.83;1.63;;;19.20;99.90;;;;;;5015654;28;20501;-91
2022/06/27 00:03:25;;;;;;;1.70;1.47;;;19.20;99.90;;;;;;5016983;28;20457;-91
2022/06/27 00:05:52;;;;;;;1.83;1.30;;;19.20;99.90;;;;;;5016448;28;20468;-92
2022/06/27 00:08:19;;;;;;;1.90;1.27;;;19.10;99.90;;;;;;5016366;28;20838;-91
2022/06/27 00:10:46;;;;;;;2.30;1.40;;;19.10;99.90;;;;;;5017643;28;20486;-91
2022/06/27 00:13:12;;;;;;;1.57;1.17;;;19.00;99.90;;;;;;5017286;28;20470;-92
2022/06/27 00:15:40;;;;;;;1.60;1.10;;;19.00;99.90;;;;;;5016979;28;20572;-91
2022/06/27 00:18:07;;;;;;;1.30;1.00;;;19.00;99.90;;;;;;5017754;28;21005;-92
2022/06/27 00:20:34;;;;;;;5.10;1.30;;;19.00;99.90;;;;;;5017311;28;20465;-92
2022/06/27 00:23:01;;;;;;;2.30;1.50;;;18.90;99.90;;;;;;5019568;28;20462;-92
2022/06/27 00:25:27;;;;;;;3.20;1.50;;;18.80;99.90;;;;;;5016744;28;20469;-93
2022/06/27 00:27:54;;;;;;;1.87;1.57;;;18.80;99.90;;;;;;5017432;28;20461;-90
2022/06/27 00:30:21;;;;;;;2.53;1.33;;;18.70;99.90;;;;;;5018630;28;20476;-91
2022/06/27 00:32:49;;;;;;;2.10;1.43;;;18.60;99.90;;;;;;5023528;28;20488;-91
2022/06/27 00:35:16;;;;;;;2.07;1.10;;;18.50;99.90;;;;;;5034561;28;20465;-93
2022/06/27 00:37:43;;;;;;;1.70;1.20;;;18.40;99.90;;;;;;5029305;28;20481;-91
2022/06/27 00:40:10;;;;;;;2.60;1.53;;;18.20;99.90;;;;;;5023693;28;20461;-92
2022/06/27 00:42:37;;;;;;;2.90;1.40;;;18.10;99.90;;;;;;5023057;28;20481;-91
2022/06/27 00:45:05;;;;;;;3.37;1.83;;;17.90;99.90;;;;;;5022838;28;20469;-91
2022/06/27 00:47:32;;;;;;;1.83;1.40;;;17.80;99.90;;;;;;5023221;28;20461;-91
2022/06/27 00:50:00;;;;;;;2.67;1.77;;;17.70;99.90;;;;;;5023608;28;20726;-91
2022/06/27 00:52:27;;;;;;;4.37;2.07;;;17.70;99.90;;;;;;5023391;28;21013;-91
2022/06/27 00:54:54;;;;;;;2.50;1.90;;;17.70;99.90;;;;;;5027439;28;20466;-92
2022/06/27 00:57:21;;;;;;;4.17;1.63;;;17.70;99.90;;;;;;5027354;28;20461;-92
2022/06/27 00:59:48;;;;;;;1.90;1.50;;;17.70;99.90;;;;;;5027133;28;20456;-92
2022/06/27 01:02:15;;;;;;;4.40;1.40;;;17.70;99.90;;;;;;5027627;28;20488;-92
2022/06/27 01:04:42;;;;;;;2.07;1.37;;;17.60;99.90;;;;;;5028622;28;20453;-92
2022/06/27 01:07:11;;;;;;;2.27;1.43;;;17.50;99.90;;;;;;5035284;28;20449;-91
2022/06/27 01:09:38;;;;;;;1.50;1.20;;;17.50;99.90;;;;;;5033245;28;20445;-92
2022/06/27 01:12:06;;;;;;;2.40;1.47;;;17.50;99.90;;;;;;5031932;28;20475;-92
2022/06/27 01:14:33;;;;;;;3.97;1.90;;;17.50;99.90;;;;;;5032116;28;20460;-92
2022/06/27 01:17:00;;;;;;;2.40;1.50;;;17.50;99.90;;;;;;5028871;28;20469;-92
2022/06/27 01:19:27;;;;;;;2.80;1.37;;;17.60;99.90;;;;;;5030111;28;20500;-92
2022/06/27 01:21:56;;;;;;;2.10;1.20;;;17.60;99.90;;;;;;5033233;28;20479;-93
2022/06/27 01:24:27;;;;;;;2.60;1.33;;;17.60;99.90;;;;;;5032391;28;20461;-94
2022/06/27 01:26:54;;;;;;;2.90;1.40;;;17.60;99.90;;;;;;5032482;28;20457;-92
2022/06/27 01:29:21;;;;;;;1.83;1.60;;;17.60;99.90;;;;;;5032296;28;20528;-92
2022/06/27 01:31:49;;;;;;;1.80;1.27;;;17.60;99.90;;;;;;5032599;28;20508;-93
2022/06/27 01:34:17;;;;;;;4.10;1.30;;;17.60;99.90;;;;;;5033315;28;20444;-93
2022/06/27 01:36:44;;;;;;;2.13;1.60;;;17.50;99.90;;;;;;5034088;28;20458;-92
2022/06/27 01:39:13;;;;;;;1.70;1.30;;;17.50;99.90;;;;;;5033685;28;20512;-92
2022/06/27 01:41:43;;;;;;;2.63;1.97;;;17.50;99.90;;;;;;5033704;28;20473;-93
2022/06/27 01:44:10;;;;;;;2.13;1.50;;;17.50;99.90;;;;;;5034671;28;20433;-92
2022/06/27 01:46:42;;;;;;;5.47;1.40;;;17.50;99.90;;;;;;5034013;28;20471;-92
2022/06/27 01:49:09;;;;;;;1.40;1.20;;;17.60;99.90;;;;;;5032167;28;20457;-93
2022/06/27 01:51:36;;;;;;;3.77;1.53;;;17.60;99.90;;;;;;5033066;28;20487;-93
2022/06/27 01:54:03;;;;;;;1.17;1.07;;;17.60;99.90;;;;;;5034148;28;20468;-93
2022/06/27 01:56:30;;;;;;;2.03;1.30;;;17.50;99.90;;;;;;5033840;28;20973;-93
2022/06/27 01:58:59;;;;;;;4.17;1.80;;;17.60;99.90;;;;;;5035399;28;20489;-93
2022/06/27 02:01:26;;;;;;;2.33;1.50;;;17.60;99.90;;;;;;5034407;28;20485;-92
2022/06/27 02:03:54;;;;;;;2.10;1.63;;;17.60;99.90;;;;;;5034781;28;20472;-92
2022/06/27 02:06:21;;;;;;;2.10;1.07;;;17.50;99.90;;;;;;5034650;28;20461;-93
2022/06/27 02:08:50;;;;;;;1.70;1.20;;;17.50;99.90;;;;;;5035008;28;20448;-92
2022/06/27 02:11:17;;;;;;;2.50;1.57;;;17.50;99.90;;;;;;5034966;28;20477;-92
2022/06/27 02:13:44;;;;;;;1.53;1.23;;;17.50;99.90;;;;;;5036580;28;20457;-92
2022/06/27 02:16:15;;;;;;;2.20;1.80;;;17.50;99.90;;;;;;5036191;28;20451;-93
2022/06/27 02:18:43;;;;;;;3.20;1.37;;;17.50;99.90;;;;;;5035705;28;20488;-93
2022/06/27 02:21:12;;;;;;;3.40;1.60;;;17.50;99.90;;;;;;5035765;28;20457;-93
2022/06/27 02:23:39;;;;;;;2.63;1.50;;;17.50;99.90;;;;;;5035690;28;20437;-94
2022/06/27 02:26:07;;;;;;;2.30;1.37;;;17.40;99.90;;;;;;5033403;28;20457;-92
2022/06/27 02:28:34;;;;;;;2.20;1.10;;;17.50;99.90;;;;;;5033701;28;20464;-92
2022/06/27 02:31:02;;;;;;;1.87;1.30;;;17.50;99.90;;;;;;5032620;28;20472;-95
2022/06/27 02:33:35;;;;;;;2.47;1.40;;;17.30;99.90;;;;;;5035185;28;20481;-93
2022/06/27 02:36:04;;;;;;;2.33;1.40;;;17.30;99.90;;;;;;5035835;28;20449;-93
2022/06/27 02:38:30;;;;;;;2.73;1.23;;;17.30;99.90;;;;;;5035433;28;20488;-92
2022/06/27 02:41:00;;;;;;;1.60;1.23;;;17.30;99.90;;;;;;5034705;28;20473;-93
2022/06/27 02:43:29;;;;;;;3.70;1.30;;;17.30;99.90;;;;;;5034526;28;20429;-95
2022/06/27 02:45:56;;;;;;;1.80;1.50;;;17.20;99.90;;;;;;5034689;28;20449;-92
2022/06/27 02:48:24;;;;;;;1.60;1.50;;;17.20;99.90;;;;;;5033877;28;20453;-91
2022/06/27 02:50:55;;;;;;;1.63;1.13;;;17.20;99.90;;;;;;5033810;28;20458;-93
2022/06/27 02:53:27;;;;;;;2.00;1.77;;;17.20;99.90;;;;;;5033916;28;20449;-93
2022/06/27 02:55:58;;;;;;;1.80;1.23;;;17.20;99.90;;;;;;5033878;28;20433;-93
2022/06/27 02:58:32;;;;;;;2.60;1.90;;;17.20;99.90;;;;;;5034397;28;20457;-93
2022/06/27 03:03:28;;;;;;;1.87;1.73;;;17.10;99.90;;;;;;5027942;28;21089;-71
2022/06/27 03:05:57;;;;;;;2.27;1.90;;;17.20;99.90;;;;;;5029919;28;20834;-72
2022/06/27 03:08:23;;;;;;;3.93;1.90;;;17.20;99.90;;;;;;5030080;28;20468;-71
2022/06/27 03:10:50;;;;;;;2.63;1.90;;;17.10;99.90;;;;;;5029824;28;20456;-71
2022/06/27 03:13:17;;;;;;;4.33;1.80;;;17.00;99.90;;;;;;5029857;28;20460;-72
2022/06/27 03:15:44;;;;;;;2.47;2.00;;;16.90;99.90;;;;;;5030140;28;20460;-71
2022/06/27 03:18:13;;;;;;;4.73;1.90;;;16.90;99.90;;;;;;5030499;28;20570;-71
2022/06/27 03:20:40;;;;;;;2.20;1.90;;;16.90;99.90;;;;;;5033592;28;20453;-71
2022/06/27 03:23:08;;;;;;;3.27;2.37;;;16.80;99.90;;;;;;5033511;28;20460;-71
2022/06/27 03:25:35;;;;;;;2.43;2.20;;;16.80;99.90;;;;;;5033496;28;20514;-70
2022/06/27 03:28:02;;;;;;;2.90;1.87;;;16.80;99.90;;;;;;5033294;28;20483;-70
2022/06/27 03:30:28;;;;;;;3.50;2.20;;;16.80;99.90;;;;;;5032413;28;20471;-70
2022/06/27 03:32:56;;;;;;;3.10;1.90;;;16.80;99.90;;;;;;5047166;28;20459;-70
2022/06/27 03:35:22;;;;;;;2.73;2.53;;;16.80;99.90;;;;;;5053036;28;20467;-70
2022/06/27 03:37:49;;;;;;;3.10;2.60;;;16.80;99.90;;;;;;5052770;28;20472;-70
2022/06/27 03:40:17;;;;;;;2.30;2.00;;;16.80;99.90;;;;;;5052973;28;20487;-70
2022/06/27 03:42:44;;;;;;;2.53;2.23;;;16.90;99.90;;;;;;5053045;28;20470;-70
2022/06/27 03:45:12;;;;;;;2.40;2.20;;;16.80;99.90;;;;;;5053270;28;20467;-69
2022/06/27 03:47:48;;;;;;;2.27;1.87;;;16.90;99.90;;;;;;5053397;28;20483;-69
2022/06/27 03:50:14;;;;;;;6.37;2.50;;;16.90;99.90;;;;;;5043638;28;20459;-69
2022/06/27 03:52:41;;;;;;;2.40;2.20;;;16.90;99.90;;;;;;5033096;28;20456;-69
2022/06/27 03:55:08;;;;;;;3.07;2.10;;;16.90;99.90;;;;;;5032818;28;20503;-69
2022/06/27 03:57:37;;;;;;;3.00;2.20;;;16.90;99.90;;;;;;5029883;28;20500;-69
2022/06/27 04:00:05;;;;;;;2.63;2.00;;;16.90;99.90;;;;;;5029662;28;20516;-69
2022/06/27 04:02:35;;;;;;;2.77;2.20;;;16.90;99.90;;;;;;5031583;28;20475;-69
2022/06/27 04:05:01;;;;;;;3.73;2.20;;;17.00;99.90;;;;;;5043417;28;20452;-69
2022/06/27 04:07:28;;;;;;;2.83;2.53;;;17.00;99.90;;;;;;5052381;28;20486;-69
2022/06/27 04:09:55;;;;;;;2.83;2.30;;;16.90;99.90;;;;;;5051823;28;20466;-68
2022/06/27 04:12:22;;;;;;;2.73;2.33;;;16.90;99.90;;;;;;5052446;28;20486;-69
2022/06/27 04:14:50;;;;;;;2.37;2.17;;;16.90;99.90;;;;;;5052439;28;20463;-69
2022/06/27 04:17:17;;;;;;;3.60;2.20;;;16.80;99.90;;;;;;5052283;28;20475;-70
2022/06/27 04:19:44;;;;;;;2.37;1.90;;;16.80;99.90;;;;;;5051782;28;20483;-70
2022/06/27 04:22:11;;;;;;;2.23;1.80;;;16.80;99.90;;;;;;5052406;28;20487;-69
2022/06/27 04:24:38;;;;;;;3.10;1.90;;;16.90;99.90;;;;;;5052310;28;20857;-70
2022/06/27 04:27:05;;;;;;;1.97;1.70;;;16.90;99.90;;;;;;5052076;28;20475;-71
2022/06/27 04:29:33;;;;;;;4.03;2.07;;;17.00;99.90;;;;;;5050765;28;20456;-70
2022/06/27 04:32:01;;;;;;;1.77;1.67;;;17.00;99.90;;;;;;5052156;28;20463;-70
2022/06/27 04:34:28;;;;;;;2.80;1.67;;;17.10;99.90;;;;;;5052100;28;20467;-70
2022/06/27 04:36:54;;;;;;;4.47;2.20;;;17.10;99.90;;;;;;5051233;28;20492;-71
2022/06/27 04:39:21;;;;;;;2.40;2.20;;;17.20;99.90;;;;;;5050220;28;20491;-70
2022/06/27 04:41:50;;;;;;;3.60;2.30;;;17.20;99.90;;;;;;5052143;28;20477;-70
2022/06/27 04:44:18;;;;;;;2.50;1.90;;;17.20;99.90;;;;;;5052032;28;20448;-70
2022/06/27 04:46:47;;;;;;;2.87;2.17;;;17.20;99.90;;;;;;5051921;28;20578;-71
2022/06/27 04:49:15;;;;;;;3.00;2.50;;;17.30;99.90;;;;;;5051491;28;20451;-70
2022/06/27 04:51:43;;;;;;;5.50;2.27;;;17.30;99.90;;;;;;5051951;28;20947;-70
2022/06/27 04:54:10;;;;;;;4.00;2.27;;;17.30;99.90;;;;;;5052098;28;20886;-71
2022/06/27 04:56:39;;;;;;;4.40;1.90;;;17.30;99.90;;;;;;5052153;28;20496;-71
2022/06/27 04:59:06;;;;;;;3.70;1.80;;;17.30;99.90;;;;;;5051609;28;20476;-71
2022/06/27 05:01:33;;;;;;;2.03;1.90;;;17.30;99.90;;;;;;5051499;28;20478;-71
2022/06/27 05:03:59;;;;;;;2.33;2.10;;;17.30;99.90;;;;;;5051767;28;20904;-71
2022/06/27 05:06:27;;;;;;;4.80;2.40;;;17.30;99.90;;;;;;5051423;28;20463;-70
2022/06/27 05:08:54;;;;;;;1.47;1.37;;;17.30;99.90;;;;;;5051595;28;20459;-70
2022/06/27 05:11:21;;;;;;;1.77;1.67;;;17.40;99.90;;;;;;5051057;28;20946;-71
2022/06/27 05:13:48;;;;;;;2.33;1.70;;;17.40;99.90;;;;;;5051817;28;20463;-70
2022/06/27 05:16:16;;;;;;;3.03;2.00;;;17.40;99.90;;;;;;5051440;28;20463;-71
2022/06/27 05:18:43;;;;;;;2.13;1.93;;;17.50;99.90;;;;;;5051221;28;20483;-70
2022/06/27 05:21:10;;;;;;;2.30;2.10;;;17.60;99.90;;;;;;5051038;28;20455;-70
2022/06/27 05:23:38;;;;;;;2.93;2.03;;;17.70;99.90;;;;;;5051232;28;20455;-70
2022/06/27 05:26:05;;;;;;;2.87;1.80;;;17.70;99.90;;;;;;5051384;28;20463;-70
2022/06/27 05:28:32;;;;;;;2.57;1.90;;;17.90;99.90;;;;;;5050694;28;20480;-70
2022/06/27 05:30:58;;;;;;;1.80;1.40;;;17.90;99.90;;;;;;5050713;28;20456;-70
2022/06/27 05:33:25;;;;;;;4.13;1.87;;;18.00;99.90;;;;;;5051032;28;20468;-70
2022/06/27 05:35:52;;;;;;;2.20;1.80;;;18.00;99.90;;;;;;5051061;28;20455;-70
2022/06/27 05:38:20;;;;;;;2.30;1.90;;;18.10;99.90;;;;;;5050753;28;20987;-70
2022/06/27 05:40:48;;;;;;;2.50;2.07;;;18.10;99.90;;;;;;5050493;28;20490;-70
2022/06/27 05:43:15;;;;;;;2.43;2.23;;;18.10;99.90;;;;;;5050881;28;20463;-70
2022/06/27 05:45:42;;;;;;;2.20;2.00;;;18.20;99.90;;;;;;5051115;28;20488;-70
2022/06/27 05:48:09;;;;;;;3.10;2.13;;;18.30;99.90;;;;;;5050810;28;20488;-71
2022/06/27 05:50:35;;;;;;;2.67;2.27;;;18.30;99.90;;;;;;5050284;28;20463;-71
2022/06/27 05:53:03;;;;;;;2.23;2.00;;;18.40;99.90;;;;;;5051000;28;20881;-70
2022/06/27 05:55:30;;;;;;;2.27;2.00;;;18.40;99.90;;;;;;5050852;28;20471;-70
2022/06/27 05:57:58;;;;;;;2.20;2.00;;;18.50;99.90;;;;;;5050956;28;20486;-70
2022/06/27 06:00:25;;;;;;;2.40;2.20;;;18.50;99.90;;;;;;5050165;28;20831;-70
2022/06/27 06:02:53;;;;;;;3.07;2.10;;;18.50;99.90;;;;;;5050732;28;20472;-71
2022/06/27 06:05:21;;;;;;;3.23;2.20;;;18.50;99.90;;;;;;5052979;28;20812;-67
2022/06/27 06:07:48;;;;;;;2.83;2.00;;;18.50;99.90;;;;;;5051007;28;20478;-69
2022/06/27 06:10:16;;;;;;;3.53;2.20;;;18.40;99.90;;;;;;5050100;28;20486;-68
2022/06/27 06:12:43;;;;;;;2.10;1.73;;;18.40;99.90;;;;;;5050851;28;20465;-69
2022/06/27 06:15:12;;;;;;;4.30;2.10;;;18.40;99.90;;;;;;5050808;28;20467;-69
2022/06/27 06:17:40;;;;;;;4.87;1.90;;;18.40;99.90;;;;;;5050473;28;20726;-69
2022/06/27 06:20:08;;;;;;;2.20;1.70;;;18.40;99.90;;;;;;5050083;28;20532;-69
2022/06/27 06:22:35;;;;;;;2.50;2.00;;;18.50;99.90;;;;;;5050568;28;20487;-69
2022/06/27 06:25:02;;;;;;;2.10;1.90;;;18.60;99.90;;;;;;5050590;28;20841;-69
2022/06/27 06:27:29;;;;;;;2.17;1.77;;;18.70;99.90;;;;;;5050135;28;21024;-69
2022/06/27 06:29:56;;;;;;;2.80;1.57;;;18.70;99.90;;;;;;5049957;28;20804;-69
2022/06/27 06:32:25;;;;;;;2.30;1.80;;;18.90;99.90;;;;;;5050253;28;20459;-69
2022/06/27 06:34:52;;;;;;;1.63;1.47;;;19.00;99.90;;;;;;5050690;28;20997;-69
2022/06/27 06:37:18;;;;;;;2.70;1.73;;;19.10;99.90;;;;;;5050226;28;20874;-68
2022/06/27 06:39:45;;;;;;;1.50;1.40;;;19.20;99.90;;;;;;5050046;28;20882;-69
2022/06/27 06:42:12;;;;;;;1.70;1.50;;;19.40;99.90;;;;;;5050038;28;20455;-69
2022/06/27 06:44:39;;;;;;;2.20;1.50;;;19.50;99.90;;;;;;5050535;28;20463;-69
2022/06/27 06:47:08;;;;;;;2.00;1.30;;;19.60;99.90;;;;;;5050210;28;20491;-68
2022/06/27 06:49:36;;;;;;;2.70;1.47;;;19.70;99.90;;;;;;5050008;28;20521;-69
2022/06/27 06:52:04;;;;;;;3.40;1.63;;;19.70;99.90;;;;;;5050476;28;20505;-69
2022/06/27 06:54:31;;;;;;;2.50;1.60;;;19.90;99.90;;;;;;5053201;28;20467;-70
2022/06/27 06:56:58;;;;;;;1.70;1.40;;;20.00;99.90;;;;;;5053818;28;20510;-68
2022/06/27 06:59:25;;;;;;;1.53;1.43;;;20.00;99.90;;;;;;5053449;28;20483;-69
2022/06/27 07:01:53;;;;;;;2.00;1.37;;;20.10;99.90;;;;;;5053933;28;20466;-68
2022/06/27 07:04:20;;;;;;;1.93;1.50;;;20.20;99.90;;;;;;5053646;28;20459;-69
2022/06/27 07:06:49;;;;;;;3.03;1.63;;;20.30;99.90;;;;;;5053859;28;20487;-69
2022/06/27 07:09:16;;;;;;;2.17;1.43;;;20.30;99.90;;;;;;5052983;28;20469;-69
2022/06/27 07:11:44;;;;;;;1.60;1.43;;;20.40;99.90;;;;;;5053840;28;20826;-69
2022/06/27 07:14:11;;;;;;;1.87;1.60;;;20.40;99.90;;;;;;5053649;28;20498;-68
2022/06/27 07:16:38;;;;;;;1.70;1.30;;;20.40;99.90;;;;;;5053722;28;20462;-69
2022/06/27 07:19:06;;;;;;;3.60;1.70;;;20.40;99.90;;;;;;5053302;28;20459;-68
2022/06/27 07:21:34;;;;;;;1.77;1.20;;;20.50;99.90;;;;;;5053268;28;20489;-69
2022/06/27 07:24:03;;;;;;;1.90;1.80;;;20.70;99.90;;;;;;5053728;28;20702;-69
2022/06/27 07:26:32;;;;;;;2.63;1.30;;;20.80;99.90;;;;;;5053028;28;20455;-69
2022/06/27 07:29:01;;;;;;;1.90;1.70;;;20.90;99.90;;;;;;5053437;28;20467;-69
2022/06/27 07:31:27;;;;;;;2.53;1.47;;;21.00;99.90;;;;;;5052727;28;20460;-69
2022/06/27 07:33:54;;;;;;;1.50;1.40;;;21.00;99.90;;;;;;5053431;28;20459;-69
2022/06/27 07:36:25;;;;;;;2.00;1.53;;;21.10;99.90;;;;;;5053174;28;20459;-69
2022/06/27 07:38:53;;;;;;;1.60;1.30;;;21.10;99.90;;;;;;5053125;28;20499;-69
2022/06/27 07:41:22;;;;;;;4.10;1.90;;;21.20;99.90;;;;;;5052521;28;20898;-69
2022/06/27 07:43:49;;;;;;;2.80;1.50;;;21.20;99.90;;;;;;5053326;28;20605;-70
2022/06/27 07:46:17;;;;;;;1.70;1.43;;;21.20;99.90;;;;;;5052936;28;20467;-69
2022/06/27 07:48:45;;;;;;;4.30;1.47;;;21.20;99.90;;;;;;5053169;28;20487;-69
2022/06/27 07:51:14;;;;;;;1.60;1.50;;;21.20;99.90;;;;;;5052434;28;20516;-69
2022/06/27 07:53:41;;;;;;;1.87;1.47;;;21.20;99.90;;;;;;5053100;28;20460;-68
2022/06/27 07:56:08;;;;;;;1.70;1.43;;;21.20;99.90;;;;;;5052713;28;20475;-69
2022/06/27 07:58:38;;;;;;;2.30;1.40;;;21.20;99.90;;;;;;5052730;28;20479;-69
2022/06/27 08:01:06;;;;;;;1.90;1.47;;;21.30;99.90;;;;;;5052156;28;20480;-69
2022/06/27 08:03:44;;;;;;;2.77;1.70;;;21.30;99.90;;;;;;5052940;28;20464;-69
2022/06/27 08:06:13;;;;;;;1.80;1.57;;;21.30;99.90;;;;;;5051398;28;20462;-69
2022/06/27 08:08:41;;;;;;;2.10;1.63;;;21.50;99.90;;;;;;5052588;28;20490;-69
2022/06/27 08:11:10;;;;;;;2.23;1.77;;;21.60;99.90;;;;;;5051596;28;20460;-69
2022/06/27 08:13:38;;;;;;;2.30;1.73;;;21.70;99.90;;;;;;5052706;28;20457;-69
2022/06/27 08:16:06;;;;;;;1.50;1.20;;;21.80;99.90;;;;;;5052795;28;20865;-69
2022/06/27 08:18:35;;;;;;;2.70;1.53;;;22.00;99.90;;;;;;5052373;28;20829;-69
2022/06/27 08:21:02;;;;;;;4.43;1.63;;;22.00;99.90;;;;;;5051960;28;20977;-69
2022/06/27 08:23:31;;;;;;;2.03;1.50;;;22.20;99.90;;;;;;5052247;28;20470;-69
2022/06/27 08:25:59;;;;;;;3.80;1.90;;;22.40;99.90;;;;;;5052455;28;20868;-69
2022/06/27 08:28:28;;;;;;;2.20;1.63;;;22.40;99.90;;;;;;5052134;28;20475;-68
2022/06/27 08:30:57;;;;;;;2.77;1.20;;;22.40;99.90;;;;;;5051747;28;20451;-68
2022/06/27 08:33:24;;;;;;;1.83;1.63;;;22.50;99.90;;;;;;5052228;28;20461;-69
2022/06/27 08:35:51;;;;;;;3.93;1.60;;;22.60;99.90;;;;;;5052335;28;20459;-68
2022/06/27 08:38:19;;;;;;;3.10;1.60;;;22.60;99.90;;;;;;5051905;28;21013;-68
2022/06/27 08:40:47;;;;;;;4.47;1.50;;;22.50;99.90;;;;;;5051725;28;20491;-69
2022/06/27 08:43:14;;;;;;;4.60;1.53;;;22.50;99.90;;;;;;5051939;28;20465;-69
2022/06/27 08:45:44;;;;;;;2.70;1.27;;;22.50;99.90;;;;;;5052131;28;20459;-69
2022/06/27 08:48:13;;;;;;;1.40;1.30;;;22.40;99.90;;;;;;5051788;28;20483;-68
2022/06/27 08:50:40;;;;;;;1.50;1.40;;;22.30;99.90;;;;;;5051451;28;20458;-68
2022/06/27 08:53:08;;;;;;;2.60;1.20;;;22.20;99.90;;;;;;5051609;28;20967;-68
2022/06/27 08:55:35;;;;;;;1.97;1.23;;;22.10;99.90;;;;;;5051895;28;20482;-69
2022/06/27 08:58:06;;;;;;;2.20;1.40;;;22.10;99.90;;;;;;5051572;28;20490;-67
2022/06/27 09:00:36;;;;;;;2.40;1.50;;;22.00;99.90;;;;;;5051155;28;20869;-68
2022/06/27 09:03:04;;;;;;;1.93;1.20;;;22.10;99.90;;;;;;5069670;22;20518;-91
2022/06/27 09:05:33;;;;;;;2.20;1.40;;;22.10;99.90;;;;;;5037614;28;20949;-91
2022/06/27 09:08:02;;;;;;;2.07;1.10;;;22.00;99.90;;;;;;5037970;28;20460;-91
2022/06/27 09:10:31;;;;;;;1.40;1.30;;;21.90;99.90;;;;;;5037150;28;20463;-91
2022/06/27 09:13:00;;;;;;;2.70;1.30;;;21.80;99.90;;;;;;5039335;28;20515;-92
2022/06/27 09:15:29;;;;;;;2.43;1.43;;;21.80;99.90;;;;;;5037271;28;20980;-92
2022/06/27 09:18:01;;;;;;;1.70;1.30;;;21.60;99.90;;;;;;5036391;28;20518;-92
2022/06/27 09:20:49;;;;;;;2.00;1.20;;;21.40;99.90;;;;;;5036837;28;20511;-93
2022/06/27 09:23:43;;;;;;;1.40;1.30;;;21.20;99.90;;;;;;5037354;28;20492;-93
2022/06/27 09:26:13;;;;;;;2.47;1.30;;;21.10;99.90;;;;;;5037658;28;20563;-92
2022/06/27 09:28:50;;;;;;;2.03;1.63;;;21.00;99.90;;;;;;5036144;28;20460;-91
2022/06/27 09:31:44;;;;;;;1.40;1.30;;;21.00;99.90;;;;;;5036229;28;20988;-91
2022/06/27 09:34:15;;;;;;;1.30;1.20;;;21.00;99.90;;;;;;5037741;28;20504;-91
2022/06/27 09:36:46;;;;;;;2.03;1.30;;;21.00;99.90;;;;;;5037413;28;20574;-92
2022/06/27 09:39:18;;;;;;;1.70;1.60;;;21.10;99.90;;;;;;5036386;28;20524;-90
2022/06/27 09:41:50;;;;;;;1.50;1.40;;;21.20;99.90;;;;;;5038512;28;20491;-91
2022/06/27 09:44:22;;;;;;;2.07;1.40;;;21.20;99.90;;;;;;5036398;28;20456;-92
2022/06/27 09:47:11;;;;;;;2.50;1.67;;;21.30;99.90;;;;;;5037262;28;20511;-91
2022/06/27 09:49:39;;;;;;;3.13;1.43;;;21.40;99.90;;;;;;5035378;28;20515;-93
2022/06/27 09:52:10;;;;;;;1.43;1.30;;;21.50;99.90;;;;;;5036486;28;20542;-92
2022/06/27 09:54:40;;;;;;;3.57;1.83;;;21.60;99.90;;;;;;5035170;28;20953;-92
2022/06/27 09:57:08;;;;;;;1.83;1.33;;;21.60;99.90;;;;;;5036850;28;20464;-92
2022/06/27 09:59:35;;;;;;;1.67;1.30;;;21.60;99.90;;;;;;5035663;28;20460;-91
2022/06/27 10:02:02;;;;;;;2.00;1.60;;;21.60;99.90;;;;;;5035115;28;20488;-91
2022/06/27 10:04:30;;;;;;;1.60;1.50;;;21.60;99.90;;;;;;5035768;28;20468;-91
2022/06/27 10:06:58;;;;;;;1.57;1.40;;;21.50;99.90;;;;;;5035131;28;20566;-91
2022/06/27 10:09:29;;;;;;;1.53;1.43;;;21.40;99.90;;;;;;5038849;28;20950;-91
2022/06/27 10:12:21;;;;;;;3.90;1.70;;;21.30;99.90;;;;;;5046923;28;20457;-92
2022/06/27 10:15:23;;;;;;;4.43;1.60;;;21.10;99.90;;;;;;5049947;28;20437;-92
2022/06/27 10:17:52;;;;;;;1.60;1.40;;;20.90;99.90;;;;;;5050050;28;20486;-91
2022/06/27 10:20:20;;;;;;;1.93;1.47;;;20.80;99.90;;;;;;5038362;28;20464;-92
2022/06/27 10:22:48;;;;;;;1.93;1.83;;;20.80;99.90;;;;;;5038393;28;20492;-92
2022/06/27 10:25:34;;;;;;;2.30;1.90;;;20.60;99.90;;;;;;5038488;28;20488;-90
2022/06/27 10:28:23;;;;;;;2.40;1.60;;;20.60;99.90;;;;;;5039093;28;20464;-91
2022/06/27 10:30:53;;;;;;;2.60;1.63;;;20.50;99.90;;;;;;5037660;28;20460;-91
2022/06/27 10:33:39;;;;;;;1.97;1.60;;;20.50;99.90;;;;;;5042186;28;20483;-92
2022/06/27 10:36:13;;;;;;;4.80;1.70;;;20.40;99.90;;;;;;5041693;28;20459;-92
2022/06/27 10:39:03;;;;;;;2.70;1.97;;;20.30;99.90;;;;;;5041992;28;20477;-91
2022/06/27 10:41:38;;;;;;;2.00;1.73;;;20.30;99.90;;;;;;5038261;28;20484;-92
2022/06/27 10:44:06;;;;;;;3.60;1.90;;;20.30;99.90;;;;;;5044821;28;20459;-91
2022/06/27 10:46:42;;;;;;;2.40;2.10;;;20.20;99.90;;;;;;5043075;28;20830;-92
2022/06/27 10:49:23;;;;;;;2.37;2.10;;;20.10;99.90;;;;;;5043049;28;20562;-91
2022/06/27 10:51:51;;;;;;;2.50;2.30;;;20.10;99.90;;;;;;5043892;28;21010;-92
2022/06/27 10:54:19;;;;;;;2.70;2.27;;;20.10;99.90;;;;;;5047356;28;20472;-92
2022/06/27 10:56:47;;;;;;;2.53;2.33;;;20.10;99.90;;;;;;5043208;28;20563;-92
2022/06/27 10:59:57;;;;;;;4.20;2.70;;;20.10;99.90;;;;;;5043306;28;20457;-92
2022/06/27 11:02:34;;;;;;;3.70;2.30;;;20.10;99.90;;;;;;5043007;28;20583;-91
2022/06/27 11:05:03;;;;;;;2.50;2.33;;;20.20;99.90;;;;;;5042627;28;20459;-92
2022/06/27 11:07:30;;;;;;;3.33;2.60;;;20.30;99.90;;;;;;5044642;28;20464;-93
2022/06/27 11:09:57;;;;;;;2.17;2.07;;;20.40;99.90;;;;;;5043690;28;20464;-91
2022/06/27 11:12:32;;;;;;;2.57;2.37;;;20.50;99.90;;;;;;5043581;28;20482;-92
2022/06/27 11:15:00;;;;;;;2.80;2.60;;;20.50;99.90;;;;;;5044294;28;20467;-91
2022/06/27 11:17:34;;;;;;;2.70;2.50;;;20.50;99.90;;;;;;5045575;28;20460;-92
2022/06/27 11:20:16;;;;;;;3.07;2.77;;;20.60;99.90;;;;;;5044370;28;20479;-92
2022/06/27 11:22:45;;;;;;;3.20;3.00;;;20.60;99.90;;;;;;5043465;28;20540;-92
2022/06/27 11:25:13;;;;;;;2.80;2.60;;;20.50;99.90;;;;;;5042689;28;20555;-92
2022/06/27 11:27:52;;;;;;;2.63;2.43;;;20.40;99.90;;;;;;5044978;28;20484;-92
2022/06/27 11:33:25;;;;;;;2.77;2.57;;;20.50;99.90;;;;;;5045352;28;20467;-92
2022/06/27 11:35:53;;;;;;;4.03;2.60;;;20.50;99.90;;;;;;5044038;28;20466;-91
2022/06/27 11:38:22;;;;;;;3.80;2.73;;;20.50;99.90;;;;;;5042448;28;20475;-92
2022/06/27 11:41:01;;;;;;;4.00;3.23;;;20.50;99.90;;;;;;5042374;28;21026;-93
2022/06/27 11:43:46;;;;;;;2.47;2.27;;;20.50;99.90;;;;;;5046240;28;20483;-92
2022/06/27 11:46:29;;;;;;;2.00;1.90;;;20.50;99.90;;;;;;5045098;28;20456;-92
2022/06/27 11:49:00;;;;;;;2.27;2.07;;;20.40;99.90;;;;;;5052132;28;20539;-91
2022/06/27 11:51:29;;;;;;;2.30;2.07;;;20.40;99.90;;;;;;5044845;28;20452;-92
2022/06/27 11:53:59;;;;;;;2.80;2.13;;;20.30;99.90;;;;;;5044681;28;20483;-91
2022/06/27 11:56:28;;;;;;;2.30;1.87;;;20.30;99.90;;;;;;5042379;28;20452;-92
2022/06/27 11:58:57;;;;;;;2.27;2.07;;;20.30;99.90;;;;;;5042464;28;20459;-92
2022/06/27 12:01:24;;;;;;;1.73;1.63;;;20.30;99.90;;;;;;5045631;28;20480;-92
2022/06/27 12:04:11;;;;;;;2.77;1.90;;;20.30;99.90;;;;;;5045065;28;20493;-92
2022/06/27 12:06:46;;;;;;;2.80;2.00;;;20.30;99.90;;;;;;5057757;28;20453;-93
2022/06/27 12:09:13;;;;;;;2.50;2.30;;;20.30;99.90;;;;;;5043494;28;20463;-90
2022/06/27 12:12:02;;;;;;;2.90;2.57;;;20.20;99.90;;;;;;5041753;28;20978;-91
2022/06/27 12:14:30;;;;;;;3.00;2.47;;;20.20;99.90;;;;;;5039626;28;20457;-92
2022/06/27 12:16:58;;;;;;;2.83;2.40;;;20.10;99.90;;;;;;5040592;28;20468;-91
2022/06/27 12:19:28;;;;;;;3.80;2.47;;;20.10;99.90;;;;;;5039288;28;20448;-91
2022/06/27 12:21:54;;;;;;;3.17;2.87;;;20.10;99.90;;;;;;5039801;28;20527;-90
2022/06/27 12:24:22;;;;;;;3.70;2.33;;;20.10;99.90;;;;;;5039211;28;20469;-91
2022/06/27 12:26:49;;;;;;;3.20;2.50;;;20.00;99.90;;;;;;5038730;28;20984;-91
2022/06/27 12:29:17;;;;;;;3.10;2.80;;;20.00;99.90;;;;;;5038103;28;20472;-91
2022/06/27 12:31:44;;;;;;;2.73;2.53;;;20.00;99.90;;;;;;5038819;28;20484;-90
2022/06/27 12:34:11;;;;;;;2.60;2.33;;;20.00;99.90;;;;;;5039512;28;21012;-91
2022/06/27 12:36:39;;;;;;;3.13;2.73;;;20.00;99.90;;;;;;5039403;28;20456;-91
2022/06/27 12:39:07;;;;;;;3.27;2.97;;;20.10;99.90;;;;;;5038737;28;20456;-91
2022/06/27 12:41:34;;;;;;;2.57;2.37;;;20.10;99.90;;;;;;5038855;28;20691;-92
2022/06/27 12:44:01;;;;;;;2.70;2.50;;;20.00;99.90;;;;;;5039293;28;20953;-92
2022/06/27 12:46:28;;;;;;;2.40;2.20;;;20.00;99.90;;;;;;5038635;28;20456;-91
2022/06/27 12:48:56;;;;;;;3.13;2.50;;;19.90;99.90;;;;;;5039539;28;20464;-91
2022/06/27 12:51:24;;;;;;;2.97;2.77;;;19.90;99.90;;;;;;5041358;28;20522;-91
2022/06/27 12:53:53;;;;;;;2.73;2.30;;;19.90;99.90;;;;;;5042209;28;20487;-92
2022/06/27 12:56:21;;;;;;;2.80;2.37;;;19.90;99.90;;;;;;5038957;28;20460;-91
2022/06/27 12:58:48;;;;;;;2.73;2.53;;;19.90;99.90;;;;;;5038458;28;20460;-91
2022/06/27 13:01:15;;;;;;;2.40;2.20;;;19.90;99.90;;;;;;5037590;28;20491;-91
2022/06/27 13:03:42;;;;;;;2.63;2.43;;;19.90;99.90;;;;;;5038469;28;20542;-91